sensor_id;sensor_type;location;lat;lon;timestamp;pressure;altitude;pressure_sealevel;temperature;humidity
63006;BME280;53704;52.532;6.426;2023-07-13T00:01:04;101279.25;;;14.67;100.00
63006;BME280;53704;52.532;6.426;2023-07-13T00:03:29;101274.66;;;14.67;100.00
63006;BME280;53704;52.532;6.426;2023-07-13T00:06:01;101280.88;;;14.44;100.00
63006;BME280;53704;52.532;6.426;2023-07-13T00:08:30;101283.88;;;14.50;100.00
63006;BME280;53704;52.532;6.426;2023-07-13T00:10:57;101278.66;;;14.48;100.00
63006;BME280;53704;52.532;6.426;2023-07-13T00:13:23;101281.88;;;14.52;100.00
63006;BME280;53704;52.532;6.426;2023-07-13T00:15:48;101282.53;;;14.54;100.00
63006;BME280;53704;52.532;6.426;2023-07-13T00:18:14;101269.44;;;14.57;100.00
63006;BME280;53704;52.532;6.426;2023-07-13T00:20:40;101269.97;;;14.61;100.00
63006;BME280;53704;52.532;6.426;2023-07-13T00:23:07;101266.25;;;14.54;100.00
63006;BME280;53704;52.532;6.426;2023-07-13T00:25:32;101261.66;;;14.62;100.00
63006;BME280;53704;52.532;6.426;2023-07-13T00:27:57;101281.34;;;14.48;100.00
63006;BME280;53704;52.532;6.426;2023-07-13T00:30:23;101278.66;;;14.48;100.00
63006;BME280;53704;52.532;6.426;2023-07-13T00:32:49;101278.53;;;14.73;100.00
63006;BME280;53704;52.532;6.426;2023-07-13T00:35:15;101283.66;;;14.68;100.00
63006;BME280;53704;52.532;6.426;2023-07-13T00:37:41;101286.47;;;14.74;100.00
63006;BME280;53704;52.532;6.426;2023-07-13T00:40:07;101295.63;;;14.73;100.00
63006;BME280;53704;52.532;6.426;2023-07-13T00:42:34;101289.78;;;14.84;100.00
63006;BME280;53704;52.532;6.426;2023-07-13T00:47:40;101284.84;;;14.65;100.00
63006;BME280;53704;52.532;6.426;2023-07-13T00:50:10;101287.66;;;14.72;100.00
63006;BME280;53704;52.532;6.426;2023-07-13T00:52:43;101292.91;;;14.73;100.00
63006;BME280;53704;52.532;6.426;2023-07-13T00:55:10;101284.84;;;14.88;100.00
63006;BME280;53704;52.532;6.426;2023-07-13T00:57:38;101291.44;;;14.71;100.00
63006;BME280;53704;52.532;6.426;2023-07-13T01:00:05;101282.44;;;14.70;100.00
63006;BME280;53704;52.532;6.426;2023-07-13T01:02:32;101284.06;;;14.79;100.00
63006;BME280;53704;52.532;6.426;2023-07-13T01:04:58;101293.78;;;14.74;100.00
63006;BME280;53704;52.532;6.426;2023-07-13T01:07:24;101289.84;;;14.76;100.00
63006;BME280;53704;52.532;6.426;2023-07-13T01:09:53;101300.91;;;14.67;100.00
63006;BME280;53704;52.532;6.426;2023-07-13T01:12:18;101301.28;;;14.63;100.00
63006;BME280;53704;52.532;6.426;2023-07-13T01:14:43;101294.25;;;14.77;100.00
63006;BME280;53704;52.532;6.426;2023-07-13T01:17:12;101305.88;;;14.63;100.00
63006;BME280;53704;52.532;6.426;2023-07-13T01:19:44;101309.59;;;14.62;100.00
63006;BME280;53704;52.532;6.426;2023-07-13T01:22:14;101307.72;;;14.62;100.00
63006;BME280;53704;52.532;6.426;2023-07-13T01:24:42;101298.63;;;14.78;100.00
63006;BME280;53704;52.532;6.426;2023-07-13T01:27:10;101299.59;;;14.86;100.00
63006;BME280;53704;52.532;6.426;2023-07-13T01:29:38;101308.47;;;14.79;100.00
63006;BME280;53704;52.532;6.426;2023-07-13T01:32:09;101304.00;;;14.87;100.00
63006;BME280;53704;52.532;6.426;2023-07-13T01:34:35;101312.59;;;14.67;100.00
63006;BME280;53704;52.532;6.426;2023-07-13T01:37:02;101309.22;;;14.65;100.00
63006;BME280;53704;52.532;6.426;2023-07-13T01:39:28;101300.50;;;14.78;100.00
63006;BME280;53704;52.532;6.426;2023-07-13T01:41:53;101304.28;;;14.69;100.00
63006;BME280;53704;52.532;6.426;2023-07-13T01:44:19;101297.38;;;14.66;100.00
63006;BME280;53704;52.532;6.426;2023-07-13T01:46:44;101294.13;;;14.71;100.00
63006;BME280;53704;52.532;6.426;2023-07-13T01:49:10;101293.88;;;14.80;100.00
63006;BME280;53704;52.532;6.426;2023-07-13T01:51:35;101285.81;;;14.72;100.00
63006;BME280;53704;52.532;6.426;2023-07-13T01:54:01;101298.38;;;14.65;100.00
63006;BME280;53704;52.532;6.426;2023-07-13T01:56:26;101292.38;;;14.78;100.00
63006;BME280;53704;52.532;6.426;2023-07-13T01:58:52;101300.31;;;14.79;100.00
63006;BME280;53704;52.532;6.426;2023-07-13T02:01:17;101293.81;;;14.89;100.00
63006;BME280;53704;52.532;6.426;2023-07-13T02:03:43;101291.50;;;15.00;100.00
63006;BME280;53704;52.532;6.426;2023-07-13T02:06:08;101293.94;;;14.95;100.00
63006;BME280;53704;52.532;6.426;2023-07-13T02:08:34;101302.97;;;14.64;100.00
63006;BME280;53704;52.532;6.426;2023-07-13T02:11:00;101305.50;;;14.66;100.00
63006;BME280;53704;52.532;6.426;2023-07-13T02:13:25;101292.50;;;14.84;100.00
63006;BME280;53704;52.532;6.426;2023-07-13T02:15:51;101301.34;;;14.78;100.00
63006;BME280;53704;52.532;6.426;2023-07-13T02:18:17;101297.19;;;14.91;100.00
63006;BME280;53704;52.532;6.426;2023-07-13T02:20:43;101297.06;;;14.84;100.00
63006;BME280;53704;52.532;6.426;2023-07-13T02:23:09;101305.38;;;14.82;100.00
63006;BME280;53704;52.532;6.426;2023-07-13T02:25:35;101311.22;;;14.71;100.00
63006;BME280;53704;52.532;6.426;2023-07-13T02:28:00;101316.66;;;14.71;100.00
63006;BME280;53704;52.532;6.426;2023-07-13T02:30:26;101314.50;;;14.58;100.00
63006;BME280;53704;52.532;6.426;2023-07-13T02:32:52;101324.78;;;14.71;100.00
63006;BME280;53704;52.532;6.426;2023-07-13T02:35:17;101322.38;;;14.76;100.00
63006;BME280;53704;52.532;6.426;2023-07-13T02:37:43;101317.19;;;14.67;100.00
63006;BME280;53704;52.532;6.426;2023-07-13T02:40:09;101312.28;;;14.62;100.00
63006;BME280;53704;52.532;6.426;2023-07-13T02:42:34;101306.53;;;14.65;100.00
63006;BME280;53704;52.532;6.426;2023-07-13T02:45:00;101306.69;;;14.63;100.00
63006;BME280;53704;52.532;6.426;2023-07-13T02:47:25;101301.84;;;14.51;100.00
63006;BME280;53704;52.532;6.426;2023-07-13T02:49:52;101297.03;;;14.61;100.00
63006;BME280;53704;52.532;6.426;2023-07-13T02:52:17;101305.19;;;14.53;100.00
63006;BME280;53704;52.532;6.426;2023-07-13T02:54:43;101302.53;;;14.44;100.00
63006;BME280;53704;52.532;6.426;2023-07-13T02:57:08;101304.31;;;14.29;100.00
63006;BME280;53704;52.532;6.426;2023-07-13T02:59:34;101304.00;;;14.24;100.00
63006;BME280;53704;52.532;6.426;2023-07-13T03:02:01;101312.56;;;14.36;100.00
63006;BME280;53704;52.532;6.426;2023-07-13T03:04:26;101313.03;;;14.47;100.00
63006;BME280;53704;52.532;6.426;2023-07-13T03:06:52;101314.88;;;14.16;100.00
63006;BME280;53704;52.532;6.426;2023-07-13T03:09:18;101311.31;;;14.15;100.00
63006;BME280;53704;52.532;6.426;2023-07-13T03:11:43;101316.03;;;14.21;100.00
63006;BME280;53704;52.532;6.426;2023-07-13T03:14:08;101317.53;;;14.24;100.00
63006;BME280;53704;52.532;6.426;2023-07-13T03:16:34;101313.88;;;14.08;100.00
63006;BME280;53704;52.532;6.426;2023-07-13T03:18:59;101315.50;;;14.26;100.00
63006;BME280;53704;52.532;6.426;2023-07-13T03:21:25;101314.41;;;14.04;100.00
63006;BME280;53704;52.532;6.426;2023-07-13T03:23:50;101316.53;;;14.17;100.00
63006;BME280;53704;52.532;6.426;2023-07-13T03:26:18;101323.09;;;13.83;100.00
63006;BME280;53704;52.532;6.426;2023-07-13T03:28:45;101325.09;;;13.97;100.00
63006;BME280;53704;52.532;6.426;2023-07-13T03:31:17;101330.66;;;13.96;100.00
63006;BME280;53704;52.532;6.426;2023-07-13T03:33:44;101326.50;;;13.77;100.00
63006;BME280;53704;52.532;6.426;2023-07-13T03:36:14;101329.88;;;13.87;100.00
63006;BME280;53704;52.532;6.426;2023-07-13T03:38:39;101327.84;;;13.72;100.00
63006;BME280;53704;52.532;6.426;2023-07-13T03:41:05;101328.47;;;13.91;100.00
63006;BME280;53704;52.532;6.426;2023-07-13T03:43:30;101338.66;;;13.89;100.00
63006;BME280;53704;52.532;6.426;2023-07-13T03:45:56;101334.25;;;13.88;100.00
63006;BME280;53704;52.532;6.426;2023-07-13T03:48:21;101338.66;;;13.89;100.00
63006;BME280;53704;52.532;6.426;2023-07-13T03:50:48;101347.31;;;13.76;100.00
63006;BME280;53704;52.532;6.426;2023-07-13T03:53:15;101350.00;;;13.84;100.00
63006;BME280;53704;52.532;6.426;2023-07-13T03:55:40;101351.84;;;13.75;100.00
63006;BME280;53704;52.532;6.426;2023-07-13T03:58:39;101353.56;;;13.77;100.00
63006;BME280;53704;52.532;6.426;2023-07-13T04:01:06;101352.38;;;13.63;100.00
63006;BME280;53704;52.532;6.426;2023-07-13T04:03:33;101363.19;;;13.79;100.00
63006;BME280;53704;52.532;6.426;2023-07-13T04:06:00;101358.97;;;13.77;100.00
63006;BME280;53704;52.532;6.426;2023-07-13T04:08:27;101354.44;;;13.61;100.00
63006;BME280;53704;52.532;6.426;2023-07-13T04:10:53;101362.03;;;13.65;100.00
63006;BME280;53704;52.532;6.426;2023-07-13T04:13:19;101357.78;;;13.63;100.00
63006;BME280;53704;52.532;6.426;2023-07-13T04:15:44;101360.00;;;13.59;100.00
63006;BME280;53704;52.532;6.426;2023-07-13T04:18:10;101359.16;;;13.67;100.00
63006;BME280;53704;52.532;6.426;2023-07-13T04:20:36;101370.34;;;13.55;100.00
63006;BME280;53704;52.532;6.426;2023-07-13T04:23:01;101378.63;;;13.54;100.00
63006;BME280;53704;52.532;6.426;2023-07-13T04:25:27;101382.31;;;13.61;100.00
63006;BME280;53704;52.532;6.426;2023-07-13T04:27:53;101374.03;;;13.54;100.00
63006;BME280;53704;52.532;6.426;2023-07-13T04:30:19;101372.53;;;13.44;100.00
63006;BME280;53704;52.532;6.426;2023-07-13T04:32:45;101378.44;;;13.64;100.00
63006;BME280;53704;52.532;6.426;2023-07-13T04:35:10;101380.66;;;13.60;100.00
63006;BME280;53704;52.532;6.426;2023-07-13T04:37:36;101382.16;;;13.63;100.00
63006;BME280;53704;52.532;6.426;2023-07-13T04:40:02;101375.03;;;13.53;100.00
63006;BME280;53704;52.532;6.426;2023-07-13T04:42:28;101386.03;;;13.52;100.00
63006;BME280;53704;52.532;6.426;2023-07-13T04:44:54;101380.13;;;13.65;100.00
63006;BME280;53704;52.532;6.426;2023-07-13T04:47:19;101385.03;;;13.61;100.00
63006;BME280;53704;52.532;6.426;2023-07-13T04:49:45;101386.38;;;13.65;100.00
63006;BME280;53704;52.532;6.426;2023-07-13T04:52:11;101377.91;;;13.77;100.00
63006;BME280;53704;52.532;6.426;2023-07-13T04:54:37;101384.00;;;13.87;100.00
63006;BME280;53704;52.532;6.426;2023-07-13T04:57:04;101389.72;;;13.92;100.00
63006;BME280;53704;52.532;6.426;2023-07-13T04:59:32;101388.53;;;13.86;100.00
63006;BME280;53704;52.532;6.426;2023-07-13T05:01:58;101386.84;;;13.93;100.00
63006;BME280;53704;52.532;6.426;2023-07-13T05:04:23;101390.72;;;13.99;100.00
63006;BME280;53704;52.532;6.426;2023-07-13T05:06:49;101396.31;;;14.06;100.00
63006;BME280;53704;52.532;6.426;2023-07-13T05:09:14;101392.75;;;13.97;100.00
63006;BME280;53704;52.532;6.426;2023-07-13T05:11:40;101402.06;;;14.03;100.00
63006;BME280;53704;52.532;6.426;2023-07-13T05:14:05;101399.50;;;14.09;100.00
63006;BME280;53704;52.532;6.426;2023-07-13T05:16:31;101402.38;;;14.08;100.00
63006;BME280;53704;52.532;6.426;2023-07-13T05:18:57;101399.47;;;14.18;100.00
63006;BME280;53704;52.532;6.426;2023-07-13T05:21:23;101394.38;;;14.23;100.00
63006;BME280;53704;52.532;6.426;2023-07-13T05:23:50;101412.94;;;14.34;100.00
63006;BME280;53704;52.532;6.426;2023-07-13T05:26:15;101422.94;;;14.34;100.00
63006;BME280;53704;52.532;6.426;2023-07-13T05:28:41;101425.47;;;14.35;100.00
63006;BME280;53704;52.532;6.426;2023-07-13T05:31:08;101416.63;;;14.50;100.00
63006;BME280;53704;52.532;6.426;2023-07-13T05:33:34;101410.56;;;14.47;100.00
63006;BME280;53704;52.532;6.426;2023-07-13T05:36:00;101414.44;;;14.53;100.00
63006;BME280;53704;52.532;6.426;2023-07-13T05:38:26;101419.47;;;14.56;100.00
63006;BME280;53704;52.532;6.426;2023-07-13T05:40:53;101422.03;;;14.66;100.00
63006;BME280;53704;52.532;6.426;2023-07-13T05:43:19;101423.00;;;14.73;100.00
63006;BME280;53704;52.532;6.426;2023-07-13T05:45:44;101416.69;;;14.81;100.00
63006;BME280;53704;52.532;6.426;2023-07-13T05:48:10;101422.25;;;14.88;100.00
63006;BME280;53704;52.532;6.426;2023-07-13T05:50:35;101421.47;;;15.02;100.00
63006;BME280;53704;52.532;6.426;2023-07-13T05:53:01;101426.25;;;15.00;100.00
63006;BME280;53704;52.532;6.426;2023-07-13T05:55:26;101428.72;;;15.10;100.00
63006;BME280;53704;52.532;6.426;2023-07-13T05:57:52;101423.25;;;15.18;100.00
63006;BME280;53704;52.532;6.426;2023-07-13T06:00:17;101426.81;;;15.18;100.00
63006;BME280;53704;52.532;6.426;2023-07-13T06:02:43;101443.88;;;15.27;100.00
63006;BME280;53704;52.532;6.426;2023-07-13T06:05:09;101431.16;;;15.28;100.00
63006;BME280;53704;52.532;6.426;2023-07-13T06:07:34;101433.69;;;15.29;100.00
63006;BME280;53704;52.532;6.426;2023-07-13T06:10:00;101435.50;;;15.37;100.00
63006;BME280;53704;52.532;6.426;2023-07-13T06:12:27;101439.00;;;15.46;100.00
63006;BME280;53704;52.532;6.426;2023-07-13T06:14:54;101445.78;;;15.42;100.00
63006;BME280;53704;52.532;6.426;2023-07-13T06:17:19;101449.13;;;15.52;100.00
63006;BME280;53704;52.532;6.426;2023-07-13T06:19:47;101446.41;;;15.52;100.00
63006;BME280;53704;52.532;6.426;2023-07-13T06:22:12;101455.91;;;15.56;100.00
63006;BME280;53704;52.532;6.426;2023-07-13T06:24:38;101453.41;;;15.69;100.00
63006;BME280;53704;52.532;6.426;2023-07-13T06:27:06;101449.31;;;15.73;100.00
63006;BME280;53704;52.532;6.426;2023-07-13T06:29:35;101460.41;;;15.87;100.00
63006;BME280;53704;52.532;6.426;2023-07-13T06:32:01;101462.75;;;15.90;100.00
63006;BME280;53704;52.532;6.426;2023-07-13T06:34:26;101457.31;;;15.90;100.00
63006;BME280;53704;52.532;6.426;2023-07-13T06:36:51;101464.66;;;16.04;100.00
63006;BME280;53704;52.532;6.426;2023-07-13T06:39:17;101461.47;;;16.16;100.00
63006;BME280;53704;52.532;6.426;2023-07-13T06:41:42;101464.28;;;16.22;100.00
63006;BME280;53704;52.532;6.426;2023-07-13T06:44:08;101464.78;;;16.41;100.00
63006;BME280;53704;52.532;6.426;2023-07-13T06:46:33;101470.88;;;16.43;100.00
63006;BME280;53704;52.532;6.426;2023-07-13T06:48:59;101467.41;;;16.49;100.00
63006;BME280;53704;52.532;6.426;2023-07-13T06:51:25;101466.47;;;16.57;100.00
63006;BME280;53704;52.532;6.426;2023-07-13T06:53:51;101462.34;;;16.61;100.00
63006;BME280;53704;52.532;6.426;2023-07-13T06:56:17;101463.28;;;16.68;100.00
63006;BME280;53704;52.532;6.426;2023-07-13T06:58:42;101465.41;;;17.03;100.00
63006;BME280;53704;52.532;6.426;2023-07-13T07:01:08;101464.72;;;17.15;100.00
63006;BME280;53704;52.532;6.426;2023-07-13T07:03:34;101470.13;;;17.30;100.00
63006;BME280;53704;52.532;6.426;2023-07-13T07:06:01;101469.59;;;17.20;100.00
63006;BME280;53704;52.532;6.426;2023-07-13T07:08:27;101477.63;;;17.28;100.00
63006;BME280;53704;52.532;6.426;2023-07-13T07:10:52;101472.59;;;17.47;100.00
63006;BME280;53704;52.532;6.426;2023-07-13T07:13:19;101470.28;;;17.65;100.00
63006;BME280;53704;52.532;6.426;2023-07-13T07:15:45;101471.38;;;17.93;100.00
63006;BME280;53704;52.532;6.426;2023-07-13T07:18:10;101470.63;;;18.05;100.00
63006;BME280;53704;52.532;6.426;2023-07-13T07:20:36;101484.16;;;17.92;100.00
63006;BME280;53704;52.532;6.426;2023-07-13T07:23:01;101474.03;;;17.86;100.00
63006;BME280;53704;52.532;6.426;2023-07-13T07:25:27;101472.13;;;17.86;100.00
63006;BME280;53704;52.532;6.426;2023-07-13T07:27:57;101480.31;;;17.86;100.00
63006;BME280;53704;52.532;6.426;2023-07-13T07:30:22;101474.75;;;17.95;100.00
63006;BME280;53704;52.532;6.426;2023-07-13T07:32:48;101476.28;;;18.32;100.00
63006;BME280;53704;52.532;6.426;2023-07-13T07:35:13;101478.75;;;18.55;100.00
63006;BME280;53704;52.532;6.426;2023-07-13T07:37:39;101471.38;;;18.49;100.00
63006;BME280;53704;52.532;6.426;2023-07-13T07:40:05;101473.13;;;18.29;100.00
63006;BME280;53704;52.532;6.426;2023-07-13T07:42:30;101476.63;;;18.51;100.00
63006;BME280;53704;52.532;6.426;2023-07-13T07:44:56;101470.59;;;18.62;100.00
63006;BME280;53704;52.532;6.426;2023-07-13T07:47:21;101472.41;;;18.48;100.00
63006;BME280;53704;52.532;6.426;2023-07-13T07:49:48;101460.59;;;18.76;100.00
63006;BME280;53704;52.532;6.426;2023-07-13T07:52:13;101458.72;;;18.83;100.00
63006;BME280;53704;52.532;6.426;2023-07-13T07:54:39;101460.69;;;18.96;100.00
63006;BME280;53704;52.532;6.426;2023-07-13T07:57:05;101462.06;;;19.20;100.00
63006;BME280;53704;52.532;6.426;2023-07-13T07:59:30;101458.84;;;19.03;100.00
63006;BME280;53704;52.532;6.426;2023-07-13T08:01:55;101455.13;;;19.24;100.00
63006;BME280;53704;52.532;6.426;2023-07-13T08:04:21;101471.94;;;19.34;100.00
63006;BME280;53704;52.532;6.426;2023-07-13T08:06:46;101462.94;;;19.34;100.00
63006;BME280;53704;52.532;6.426;2023-07-13T08:09:12;101465.41;;;19.22;100.00
63006;BME280;53704;52.532;6.426;2023-07-13T08:11:37;101474.56;;;19.76;100.00
63006;BME280;53704;52.532;6.426;2023-07-13T08:14:03;101474.31;;;19.71;100.00
63006;BME280;53704;52.532;6.426;2023-07-13T08:16:28;101480.56;;;19.38;100.00
63006;BME280;53704;52.532;6.426;2023-07-13T08:18:54;101478.91;;;19.50;100.00
63006;BME280;53704;52.532;6.426;2023-07-13T08:21:19;101485.66;;;19.75;100.00
63006;BME280;53704;52.532;6.426;2023-07-13T08:23:45;101476.66;;;19.81;100.00
63006;BME280;53704;52.532;6.426;2023-07-13T08:26:11;101492.44;;;19.79;100.00
63006;BME280;53704;52.532;6.426;2023-07-13T08:28:36;101492.41;;;19.92;100.00
63006;BME280;53704;52.532;6.426;2023-07-13T08:31:06;101482.13;;;20.01;100.00
63006;BME280;53704;52.532;6.426;2023-07-13T08:33:34;101484.44;;;20.11;100.00
63006;BME280;53704;52.532;6.426;2023-07-13T08:36:00;101486.53;;;19.88;100.00
63006;BME280;53704;52.532;6.426;2023-07-13T08:38:26;101484.63;;;20.29;100.00
63006;BME280;53704;52.532;6.426;2023-07-13T08:40:56;101468.25;;;20.29;100.00
63006;BME280;53704;52.532;6.426;2023-07-13T08:43:26;101457.91;;;20.31;100.00
63006;BME280;53704;52.532;6.426;2023-07-13T08:45:59;101467.13;;;20.50;100.00
63006;BME280;53704;52.532;6.426;2023-07-13T08:48:34;101457.09;;;20.17;100.00
63006;BME280;53704;52.532;6.426;2023-07-13T08:53:58;101451.63;;;20.31;100.00
63006;BME280;53704;52.532;6.426;2023-07-13T08:56:28;101467.84;;;19.92;100.00
63006;BME280;53704;52.532;6.426;2023-07-13T08:59:14;101482.75;;;19.76;100.00
63006;BME280;53704;52.532;6.426;2023-07-13T09:02:15;101501.63;;;19.64;100.00
63006;BME280;53704;52.532;6.426;2023-07-13T09:04:47;101499.34;;;19.00;100.00
63006;BME280;53704;52.532;6.426;2023-07-13T09:15:41;101524.09;;;19.53;100.00
63006;BME280;53704;52.532;6.426;2023-07-13T09:18:13;101532.38;;;19.86;100.00
63006;BME280;53704;52.532;6.426;2023-07-13T09:20:46;101540.69;;;19.58;100.00
63006;BME280;53704;52.532;6.426;2023-07-13T09:23:20;101527.75;;;20.20;100.00
63006;BME280;53704;52.532;6.426;2023-07-13T09:25:52;101525.59;;;20.49;100.00
63006;BME280;53704;52.532;6.426;2023-07-13T09:28:29;101523.75;;;20.30;100.00
63006;BME280;53704;52.532;6.426;2023-07-13T09:31:15;101525.66;;;20.09;100.00
63006;BME280;53704;52.532;6.426;2023-07-13T09:33:41;101525.22;;;20.32;100.00
63006;BME280;53704;52.532;6.426;2023-07-13T09:36:32;101526.47;;;20.30;100.00
63006;BME280;53704;52.532;6.426;2023-07-13T09:38:59;101526.91;;;19.80;100.00
63006;BME280;53704;52.532;6.426;2023-07-13T09:41:51;101522.25;;;20.67;100.00
63006;BME280;53704;52.532;6.426;2023-07-13T09:44:31;101518.44;;;20.61;100.00
63006;BME280;53704;52.532;6.426;2023-07-13T09:46:58;101515.78;;;19.95;100.00
63006;BME280;53704;52.532;6.426;2023-07-13T09:49:26;101519.88;;;19.64;100.00
63006;BME280;53704;52.532;6.426;2023-07-13T09:52:05;101523.69;;;19.69;100.00
63006;BME280;53704;52.532;6.426;2023-07-13T09:54:34;101518.72;;;20.00;100.00
63006;BME280;53704;52.532;6.426;2023-07-13T09:57:29;101516.34;;;20.50;100.00
63006;BME280;53704;52.532;6.426;2023-07-13T09:59:56;101510.25;;;20.68;100.00
63006;BME280;53704;52.532;6.426;2023-07-13T10:02:31;101524.38;;;20.32;100.00
63006;BME280;53704;52.532;6.426;2023-07-13T10:05:04;101528.59;;;19.94;100.00
63006;BME280;53704;52.532;6.426;2023-07-13T10:07:31;101532.28;;;19.53;100.00
63006;BME280;53704;52.532;6.426;2023-07-13T10:09:59;101522.19;;;19.60;100.00
63006;BME280;53704;52.532;6.426;2023-07-13T10:12:26;101528.59;;;19.94;100.00
63006;BME280;53704;52.532;6.426;2023-07-13T10:14:55;101526.03;;;19.86;100.00
63006;BME280;53704;52.532;6.426;2023-07-13T10:17:28;101529.00;;;19.98;100.00
63006;BME280;53704;52.532;6.426;2023-07-13T10:20:01;101526.28;;;20.24;100.00
63006;BME280;53704;52.532;6.426;2023-07-13T10:22:51;101525.63;;;20.42;100.00
63006;BME280;53704;52.532;6.426;2023-07-13T10:25:22;101540.97;;;20.57;100.00
63006;BME280;53704;52.532;6.426;2023-07-13T10:28:00;101540.38;;;20.21;100.00
63006;BME280;53704;52.532;6.426;2023-07-13T10:30:31;101554.22;;;19.86;100.00
63006;BME280;53704;52.532;6.426;2023-07-13T10:33:10;101587.44;;;19.83;100.00
63006;BME280;53704;52.532;6.426;2023-07-13T10:35:37;101607.13;;;17.89;100.00
63006;BME280;53704;52.532;6.426;2023-07-13T10:38:17;101611.47;;;17.68;100.00
63006;BME280;53704;52.532;6.426;2023-07-13T10:41:11;101607.41;;;17.79;100.00
63006;BME280;53704;52.532;6.426;2023-07-13T10:43:43;101602.66;;;18.03;100.00
63006;BME280;53704;52.532;6.426;2023-07-13T10:46:13;101591.47;;;18.19;100.00
63006;BME280;53704;52.532;6.426;2023-07-13T10:48:42;101577.94;;;18.04;100.00
63006;BME280;53704;52.532;6.426;2023-07-13T10:51:10;101582.44;;;18.40;100.00
63006;BME280;53704;52.532;6.426;2023-07-13T10:53:41;101594.78;;;18.15;100.00
63006;BME280;53704;52.532;6.426;2023-07-13T10:56:24;101607.09;;;18.54;100.00
63006;BME280;53704;52.532;6.426;2023-07-13T11:04:19;101589.50;;;18.85;100.00
63006;BME280;53704;52.532;6.426;2023-07-13T11:06:47;101594.28;;;18.54;100.00
63006;BME280;53704;52.532;6.426;2023-07-13T11:09:35;101588.28;;;18.66;100.00
63006;BME280;53704;52.532;6.426;2023-07-13T11:12:10;101604.63;;;18.37;100.00
63006;BME280;53704;52.532;6.426;2023-07-13T11:17:48;101586.44;;;19.49;100.00
63006;BME280;53704;52.532;6.426;2023-07-13T11:22:44;101591.28;;;19.47;100.00
63006;BME280;53704;52.532;6.426;2023-07-13T11:25:30;101600.66;;;19.25;100.00
63006;BME280;53704;52.532;6.426;2023-07-13T11:28:18;101600.19;;;19.69;100.00
63006;BME280;53704;52.532;6.426;2023-07-13T11:30:50;101599.03;;;19.99;100.00
63006;BME280;53704;52.532;6.426;2023-07-13T11:38:35;101596.84;;;19.74;100.00
63006;BME280;53704;52.532;6.426;2023-07-13T11:41:19;101596.25;;;19.85;100.00
63006;BME280;53704;52.532;6.426;2023-07-13T11:43:49;101601.59;;;19.52;100.00
63006;BME280;53704;52.532;6.426;2023-07-13T11:46:26;101606.56;;;19.42;100.00
63006;BME280;53704;52.532;6.426;2023-07-13T11:48:53;101614.28;;;19.25;100.00
63006;BME280;53704;52.532;6.426;2023-07-13T11:51:22;101603.06;;;19.06;100.00
63006;BME280;53704;52.532;6.426;2023-07-13T11:53:50;101596.34;;;19.57;100.00
63006;BME280;53704;52.532;6.426;2023-07-13T11:56:17;101589.63;;;19.05;100.00
63006;BME280;53704;52.532;6.426;2023-07-13T11:58:43;101596.84;;;19.26;100.00
63006;BME280;53704;52.532;6.426;2023-07-13T12:01:30;101593.00;;;19.62;100.00
63006;BME280;53704;52.532;6.426;2023-07-13T12:04:00;101592.28;;;19.40;100.00
63006;BME280;53704;52.532;6.426;2023-07-13T12:06:34;101600.31;;;19.48;100.00
63006;BME280;53704;52.532;6.426;2023-07-13T12:09:13;101601.09;;;19.77;100.00
63006;BME280;53704;52.532;6.426;2023-07-13T12:11:43;101602.00;;;19.49;100.00
63006;BME280;53704;52.532;6.426;2023-07-13T12:14:14;101593.41;;;19.52;100.00
63006;BME280;53704;52.532;6.426;2023-07-13T12:16:41;101598.56;;;19.88;100.00
63006;BME280;53704;52.532;6.426;2023-07-13T12:19:16;101607.22;;;20.25;100.00
63006;BME280;53704;52.532;6.426;2023-07-13T12:21:44;101613.78;;;20.58;100.00
63006;BME280;53704;52.532;6.426;2023-07-13T12:24:17;101607.28;;;19.64;100.00
63006;BME280;53704;52.532;6.426;2023-07-13T12:26:44;101610.81;;;20.59;100.00
63006;BME280;53704;52.532;6.426;2023-07-13T12:29:16;101608.94;;;20.53;100.00
63006;BME280;53704;52.532;6.426;2023-07-13T12:31:44;101608.91;;;20.60;100.00
63006;BME280;53704;52.532;6.426;2023-07-13T12:34:21;101612.50;;;20.40;100.00
63006;BME280;53704;52.532;6.426;2023-07-13T12:36:55;101609.75;;;20.00;100.00
63006;BME280;53704;52.532;6.426;2023-07-13T12:41:48;101606.78;;;21.02;100.00
63006;BME280;53704;52.532;6.426;2023-07-13T12:44:25;101598.84;;;21.53;100.00
63006;BME280;53704;52.532;6.426;2023-07-13T12:47:13;101593.38;;;21.46;100.00
63006;BME280;53704;52.532;6.426;2023-07-13T12:49:50;101599.84;;;21.65;100.00
63006;BME280;53704;52.532;6.426;2023-07-13T12:52:28;101602.84;;;21.43;100.00
63006;BME280;53704;52.532;6.426;2023-07-13T12:55:09;101590.44;;;21.86;100.00
63006;BME280;53704;52.532;6.426;2023-07-13T12:58:02;101600.34;;;21.87;100.00
63006;BME280;53704;52.532;6.426;2023-07-13T13:00:31;101592.28;;;21.47;100.00
63006;BME280;53704;52.532;6.426;2023-07-13T13:03:30;101594.31;;;22.03;100.00
63006;BME280;53704;52.532;6.426;2023-07-13T13:06:04;101593.72;;;22.01;100.00
63006;BME280;53704;52.532;6.426;2023-07-13T13:08:32;101595.59;;;22.01;100.00
63006;BME280;53704;52.532;6.426;2023-07-13T13:10:57;101598.22;;;21.89;100.00
63006;BME280;53704;52.532;6.426;2023-07-13T13:13:23;101599.72;;;21.85;100.00
63006;BME280;53704;52.532;6.426;2023-07-13T13:15:50;101603.75;;;21.76;100.00
63006;BME280;53704;52.532;6.426;2023-07-13T13:18:19;101601.72;;;21.64;100.00
63006;BME280;53704;52.532;6.426;2023-07-13T13:20:45;101603.47;;;21.91;100.00